sensor_id;sensor_type;location;lat;lon;timestamp;pressure;altitude;pressure_sealevel;temperature;humidity
26823;BME280;14852;51.910;8.878;2024-03-08T00:01:10;100266.16;;;3.22;55.43
26823;BME280;14852;51.910;8.878;2024-03-08T00:03:36;100249.94;;;3.17;55.65
26823;BME280;14852;51.910;8.878;2024-03-08T00:06:02;100250.91;;;3.11;55.37
26823;BME280;14852;51.910;8.878;2024-03-08T00:08:28;100252.66;;;3.06;55.68
26823;BME280;14852;51.910;8.878;2024-03-08T00:10:54;100248.44;;;3.01;55.58
26823;BME280;14852;51.910;8.878;2024-03-08T00:13:19;100247.66;;;2.97;55.96
26823;BME280;14852;51.910;8.878;2024-03-08T00:15:45;100248.56;;;2.93;56.10
26823;BME280;14852;51.910;8.878;2024-03-08T00:18:11;100246.88;;;2.92;55.89
26823;BME280;14852;51.910;8.878;2024-03-08T00:20:37;100237.53;;;2.88;56.00
26823;BME280;14852;51.910;8.878;2024-03-08T00:23:03;100241.81;;;2.86;56.11
26823;BME280;14852;51.910;8.878;2024-03-08T00:25:29;100239.28;;;2.83;56.25
26823;BME280;14852;51.910;8.878;2024-03-08T00:27:54;100239.34;;;2.78;56.07
26823;BME280;14852;51.910;8.878;2024-03-08T00:30:23;100236.78;;;2.78;55.94
26823;BME280;14852;51.910;8.878;2024-03-08T00:32:50;100239.41;;;2.75;56.26
26823;BME280;14852;51.910;8.878;2024-03-08T00:35:16;100243.69;;;2.75;56.25
26823;BME280;14852;51.910;8.878;2024-03-08T00:37:42;100233.44;;;2.72;56.15
26823;BME280;14852;51.910;8.878;2024-03-08T00:40:08;100236.03;;;2.72;56.13
26823;BME280;14852;51.910;8.878;2024-03-08T00:42:37;100236.03;;;2.72;56.20
26823;BME280;14852;51.910;8.878;2024-03-08T00:45:04;100232.59;;;2.71;56.24
26823;BME280;14852;51.910;8.878;2024-03-08T00:47:30;100223.22;;;2.69;56.35
26823;BME280;14852;51.910;8.878;2024-03-08T00:49:56;100224.06;;;2.69;56.13
26823;BME280;14852;51.910;8.878;2024-03-08T00:52:22;100225.00;;;2.65;56.10
26823;BME280;14852;51.910;8.878;2024-03-08T00:54:50;100225.88;;;2.63;56.25
26823;BME280;14852;51.910;8.878;2024-03-08T00:57:15;100219.09;;;2.57;56.34
26823;BME280;14852;51.910;8.878;2024-03-08T00:59:41;100217.47;;;2.51;56.53
26823;BME280;14852;51.910;8.878;2024-03-08T01:02:07;100211.53;;;2.46;56.31
26823;BME280;14852;51.910;8.878;2024-03-08T01:04:34;100214.97;;;2.44;56.52
26823;BME280;14852;51.910;8.878;2024-03-08T01:07:00;100215.03;;;2.41;56.39
26823;BME280;14852;51.910;8.878;2024-03-08T01:09:27;100207.41;;;2.35;56.79
26823;BME280;14852;51.910;8.878;2024-03-08T01:11:54;100206.59;;;2.31;56.82
26823;BME280;14852;51.910;8.878;2024-03-08T01:14:23;100203.25;;;2.26;56.97
26823;BME280;14852;51.910;8.878;2024-03-08T01:16:50;100201.66;;;2.16;56.83
26823;BME280;14852;51.910;8.878;2024-03-08T01:19:16;100199.13;;;2.10;56.95
26823;BME280;14852;51.910;8.878;2024-03-08T01:21:42;100190.69;;;2.03;57.25
26823;BME280;14852;51.910;8.878;2024-03-08T01:24:08;100182.19;;;1.98;56.99
26823;BME280;14852;51.910;8.878;2024-03-08T01:26:33;100183.09;;;1.96;57.34
26823;BME280;14852;51.910;8.878;2024-03-08T01:29:02;100181.41;;;1.93;57.44
26823;BME280;14852;51.910;8.878;2024-03-08T01:31:29;100173.75;;;1.89;57.01
26823;BME280;14852;51.910;8.878;2024-03-08T01:33:57;100177.16;;;1.88;57.24
26823;BME280;14852;51.910;8.878;2024-03-08T01:36:22;100170.41;;;1.84;57.29
26823;BME280;14852;51.910;8.878;2024-03-08T01:38:49;100164.44;;;1.83;57.25
26823;BME280;14852;51.910;8.878;2024-03-08T01:41:15;100157.59;;;1.84;57.59
26823;BME280;14852;51.910;8.878;2024-03-08T01:43:43;100160.19;;;1.80;57.50
26823;BME280;14852;51.910;8.878;2024-03-08T01:46:09;100154.25;;;1.75;57.39
26823;BME280;14852;51.910;8.878;2024-03-08T01:48:36;100145.72;;;1.73;57.65
26823;BME280;14852;51.910;8.878;2024-03-08T01:51:03;100134.59;;;1.74;57.65
26823;BME280;14852;51.910;8.878;2024-03-08T01:53:30;100141.44;;;1.74;57.14
26823;BME280;14852;51.910;8.878;2024-03-08T01:55:57;100142.34;;;1.70;57.25
26823;BME280;14852;51.910;8.878;2024-03-08T01:58:26;100135.53;;;1.67;57.53
26823;BME280;14852;51.910;8.878;2024-03-08T02:00:54;100131.28;;;1.66;57.63
26823;BME280;14852;51.910;8.878;2024-03-08T02:03:21;100125.28;;;1.69;57.69
26823;BME280;14852;51.910;8.878;2024-03-08T02:05:49;100129.53;;;1.73;57.47
26823;BME280;14852;51.910;8.878;2024-03-08T02:08:15;100131.19;;;1.74;57.57
26823;BME280;14852;51.910;8.878;2024-03-08T02:10:46;100123.56;;;1.71;57.48
26823;BME280;14852;51.910;8.878;2024-03-08T02:13:12;100131.25;;;1.69;57.57
26823;BME280;14852;51.910;8.878;2024-03-08T02:15:58;100127.88;;;1.67;57.88
26823;BME280;14852;51.910;8.878;2024-03-08T02:18:25;100126.19;;;1.65;57.45
26823;BME280;14852;51.910;8.878;2024-03-08T02:20:59;100122.75;;;1.67;57.52
26823;BME280;14852;51.910;8.878;2024-03-08T02:23:26;100121.00;;;1.69;57.78
26823;BME280;14852;51.910;8.878;2024-03-08T02:25:54;100113.31;;;1.71;57.79
26823;BME280;14852;51.910;8.878;2024-03-08T02:28:20;100112.47;;;1.72;57.58
26823;BME280;14852;51.910;8.878;2024-03-08T02:30:50;100110.75;;;1.72;57.76
26823;BME280;14852;51.910;8.878;2024-03-08T02:33:18;100107.34;;;1.72;57.91
26823;BME280;14852;51.910;8.878;2024-03-08T02:35:48;100113.31;;;1.72;57.66
26823;BME280;14852;51.910;8.878;2024-03-08T02:38:16;100109.03;;;1.73;57.87
26823;BME280;14852;51.910;8.878;2024-03-08T02:40:43;100105.56;;;1.75;57.66
26823;BME280;14852;51.910;8.878;2024-03-08T02:43:10;100108.13;;;1.77;57.54
26823;BME280;14852;51.910;8.878;2024-03-08T02:45:36;100104.69;;;1.78;57.97
26823;BME280;14852;51.910;8.878;2024-03-08T02:48:02;100105.53;;;1.78;57.87
26823;BME280;14852;51.910;8.878;2024-03-08T02:50:28;100101.25;;;1.79;57.59
26823;BME280;14852;51.910;8.878;2024-03-08T02:52:54;100097.00;;;1.78;57.66
26823;BME280;14852;51.910;8.878;2024-03-08T02:55:20;100098.72;;;1.77;57.73
26823;BME280;14852;51.910;8.878;2024-03-08T02:57:46;100099.56;;;1.76;57.63
26823;BME280;14852;51.910;8.878;2024-03-08T03:00:15;100097.97;;;1.69;57.72
26823;BME280;14852;51.910;8.878;2024-03-08T03:02:41;100105.69;;;1.65;57.94
26823;BME280;14852;51.910;8.878;2024-03-08T03:05:08;100106.56;;;1.62;57.96
26823;BME280;14852;51.910;8.878;2024-03-08T03:07:35;100098.06;;;1.59;58.04
26823;BME280;14852;51.910;8.878;2024-03-08T03:10:01;100092.16;;;1.52;58.00
26823;BME280;14852;51.910;8.878;2024-03-08T03:12:28;100087.13;;;1.46;58.03
26823;BME280;14852;51.910;8.878;2024-03-08T03:14:54;100083.75;;;1.39;58.07
26823;BME280;14852;51.910;8.878;2024-03-08T03:17:20;100083.84;;;1.32;58.42
26823;BME280;14852;51.910;8.878;2024-03-08T03:19:46;100083.84;;;1.29;58.32
26823;BME280;14852;51.910;8.878;2024-03-08T03:22:14;100075.31;;;1.28;58.67
26823;BME280;14852;51.910;8.878;2024-03-08T03:24:41;100078.75;;;1.27;58.68
26823;BME280;14852;51.910;8.878;2024-03-08T03:27:08;100077.03;;;1.29;58.37
26823;BME280;14852;51.910;8.878;2024-03-08T03:29:39;100071.91;;;1.31;58.57
26823;BME280;14852;51.910;8.878;2024-03-08T03:32:08;100075.31;;;1.31;58.44
26823;BME280;14852;51.910;8.878;2024-03-08T03:34:34;100078.72;;;1.30;58.39
26823;BME280;14852;51.910;8.878;2024-03-08T03:37:04;100071.91;;;1.29;58.57
26823;BME280;14852;51.910;8.878;2024-03-08T03:39:30;100074.47;;;1.28;58.42
26823;BME280;14852;51.910;8.878;2024-03-08T03:42:14;100069.34;;;1.29;58.30
26823;BME280;14852;51.910;8.878;2024-03-08T03:44:40;100064.25;;;1.28;58.20
26823;BME280;14852;51.910;8.878;2024-03-08T03:47:06;100063.38;;;1.30;58.20
26823;BME280;14852;51.910;8.878;2024-03-08T03:49:32;100065.94;;;1.30;58.20
26823;BME280;14852;51.910;8.878;2024-03-08T03:51:58;100059.09;;;1.32;58.16
26823;BME280;14852;51.910;8.878;2024-03-08T03:54:24;100055.66;;;1.35;58.22
26823;BME280;14852;51.910;8.878;2024-03-08T03:56:50;100059.94;;;1.34;58.50
26823;BME280;14852;51.910;8.878;2024-03-08T03:59:19;100057.38;;;1.34;58.19
26823;BME280;14852;51.910;8.878;2024-03-08T04:01:44;100056.50;;;1.34;58.27
26823;BME280;14852;51.910;8.878;2024-03-08T04:04:10;100056.50;;;1.35;58.13
26823;BME280;14852;51.910;8.878;2024-03-08T04:06:37;100049.66;;;1.37;58.12
26823;BME280;14852;51.910;8.878;2024-03-08T04:09:03;100050.50;;;1.38;58.30
26823;BME280;14852;51.910;8.878;2024-03-08T04:11:30;100053.88;;;1.40;58.27
26823;BME280;14852;51.910;8.878;2024-03-08T04:13:56;100041.97;;;1.37;58.26
26823;BME280;14852;51.910;8.878;2024-03-08T04:16:21;100046.19;;;1.40;58.34
26823;BME280;14852;51.910;8.878;2024-03-08T04:18:47;100041.06;;;1.40;58.06
26823;BME280;14852;51.910;8.878;2024-03-08T04:21:13;100035.94;;;1.40;58.31
26823;BME280;14852;51.910;8.878;2024-03-08T04:23:39;100038.56;;;1.38;58.28
26823;BME280;14852;51.910;8.878;2024-03-08T04:26:05;100023.22;;;1.35;58.10
26823;BME280;14852;51.910;8.878;2024-03-08T04:28:32;100025.81;;;1.32;58.39
26823;BME280;14852;51.910;8.878;2024-03-08T04:30:58;100028.38;;;1.29;58.26
26823;BME280;14852;51.910;8.878;2024-03-08T04:33:26;100024.13;;;1.28;58.45
26823;BME280;14852;51.910;8.878;2024-03-08T04:35:52;100026.75;;;1.25;58.40
26823;BME280;14852;51.910;8.878;2024-03-08T04:38:18;100028.47;;;1.23;58.55
26823;BME280;14852;51.910;8.878;2024-03-08T04:40:44;100019.97;;;1.20;58.38
26823;BME280;14852;51.910;8.878;2024-03-08T04:43:10;100023.38;;;1.19;58.66
26823;BME280;14852;51.910;8.878;2024-03-08T04:45:36;100019.13;;;1.18;58.55
26823;BME280;14852;51.910;8.878;2024-03-08T04:48:03;100020.03;;;1.15;58.42
26823;BME280;14852;51.910;8.878;2024-03-08T04:50:29;100008.97;;;1.13;58.38
26823;BME280;14852;51.910;8.878;2024-03-08T04:52:55;100007.22;;;1.15;58.71
26823;BME280;14852;51.910;8.878;2024-03-08T04:55:21;100002.97;;;1.14;58.79
26823;BME280;14852;51.910;8.878;2024-03-08T04:57:48;100003.78;;;1.16;58.51
26823;BME280;14852;51.910;8.878;2024-03-08T05:00:14;99997.00;;;1.15;58.43
26823;BME280;14852;51.910;8.878;2024-03-08T05:02:41;100005.50;;;1.16;58.64
26823;BME280;14852;51.910;8.878;2024-03-08T05:05:08;99995.34;;;1.09;58.70
26823;BME280;14852;51.910;8.878;2024-03-08T05:07:37;99992.81;;;1.06;58.64
26823;BME280;14852;51.910;8.878;2024-03-08T05:10:03;99988.59;;;1.02;58.59
26823;BME280;14852;51.910;8.878;2024-03-08T05:12:29;99989.44;;;1.03;58.64
26823;BME280;14852;51.910;8.878;2024-03-08T05:14:54;99986.06;;;1.01;58.73
26823;BME280;14852;51.910;8.878;2024-03-08T05:17:21;99992.00;;;1.01;58.79
26823;BME280;14852;51.910;8.878;2024-03-08T05:19:46;99987.75;;;1.02;58.62
26823;BME280;14852;51.910;8.878;2024-03-08T05:22:12;99988.59;;;1.02;58.64
26823;BME280;14852;51.910;8.878;2024-03-08T05:24:39;99986.03;;;1.02;58.64
26823;BME280;14852;51.910;8.878;2024-03-08T05:27:04;99986.88;;;1.03;58.49
26823;BME280;14852;51.910;8.878;2024-03-08T05:29:30;99988.59;;;1.02;58.70
26823;BME280;14852;51.910;8.878;2024-03-08T05:31:56;99990.31;;;1.00;58.41
26823;BME280;14852;51.910;8.878;2024-03-08T05:34:23;99979.22;;;1.00;58.61
26823;BME280;14852;51.910;8.878;2024-03-08T05:36:49;99994.59;;;0.98;58.42
26823;BME280;14852;51.910;8.878;2024-03-08T05:39:17;99989.50;;;0.97;58.52
26823;BME280;14852;51.910;8.878;2024-03-08T05:41:43;99987.78;;;0.97;58.74
26823;BME280;14852;51.910;8.878;2024-03-08T05:44:10;99986.94;;;0.97;58.54
26823;BME280;14852;51.910;8.878;2024-03-08T05:46:37;99977.56;;;0.96;58.73
26823;BME280;14852;51.910;8.878;2024-03-08T05:49:03;99985.22;;;0.96;58.68
26823;BME280;14852;51.910;8.878;2024-03-08T05:51:33;99983.53;;;0.95;58.48
26823;BME280;14852;51.910;8.878;2024-03-08T05:54:02;99980.13;;;0.93;58.46
26823;BME280;14852;51.910;8.878;2024-03-08T05:56:29;99984.44;;;0.92;58.66
26823;BME280;14852;51.910;8.878;2024-03-08T05:58:55;99987.00;;;0.92;58.74
26823;BME280;14852;51.910;8.878;2024-03-08T06:01:22;99987.81;;;0.93;58.66
26823;BME280;14852;51.910;8.878;2024-03-08T06:03:48;99986.16;;;0.92;58.65
26823;BME280;14852;51.910;8.878;2024-03-08T06:06:14;99983.53;;;0.93;58.58
26823;BME280;14852;51.910;8.878;2024-03-08T06:08:41;99983.53;;;0.95;58.54
26823;BME280;14852;51.910;8.878;2024-03-08T06:11:09;99978.41;;;0.98;58.76
26823;BME280;14852;51.910;8.878;2024-03-08T06:13:35;99979.22;;;1.01;58.63
26823;BME280;14852;51.910;8.878;2024-03-08T06:16:01;99981.72;;;1.04;58.31
26823;BME280;14852;51.910;8.878;2024-03-08T06:18:31;99975.72;;;1.08;58.54
26823;BME280;14852;51.910;8.878;2024-03-08T06:20:57;99983.28;;;1.18;58.33
26823;BME280;14852;51.910;8.878;2024-03-08T06:23:23;99978.84;;;1.36;58.18
26823;BME280;14852;51.910;8.878;2024-03-08T06:25:49;99978.25;;;1.84;57.16
26823;BME280;14852;51.910;8.878;2024-03-08T06:28:17;99973.03;;;2.46;56.09
26823;BME280;14852;51.910;8.878;2024-03-08T06:30:43;99978.78;;;3.10;54.40
26823;BME280;14852;51.910;8.878;2024-03-08T06:33:09;99965.56;;;3.70;53.02
26823;BME280;14852;51.910;8.878;2024-03-08T06:35:36;99966.09;;;4.24;52.33
26823;BME280;14852;51.910;8.878;2024-03-08T06:38:04;99960.66;;;4.71;51.03
26823;BME280;14852;51.910;8.878;2024-03-08T06:40:30;99965.25;;;5.24;50.47
26823;BME280;14852;51.910;8.878;2024-03-08T06:42:55;99958.38;;;5.85;49.54
26823;BME280;14852;51.910;8.878;2024-03-08T06:45:21;99959.84;;;6.47;48.82
26823;BME280;14852;51.910;8.878;2024-03-08T06:47:49;99955.06;;;7.13;47.94
26823;BME280;14852;51.910;8.878;2024-03-08T06:50:15;99954.50;;;7.75;46.71
26823;BME280;14852;51.910;8.878;2024-03-08T06:52:41;99954.88;;;8.32;46.08
26823;BME280;14852;51.910;8.878;2024-03-08T06:55:12;99945.69;;;8.88;45.27
26823;BME280;14852;51.910;8.878;2024-03-08T06:57:39;99949.38;;;9.41;44.93
26823;BME280;14852;51.910;8.878;2024-03-08T07:00:09;99947.22;;;9.89;44.51
26823;BME280;14852;51.910;8.878;2024-03-08T07:02:37;99946.44;;;10.41;43.93
26823;BME280;14852;51.910;8.878;2024-03-08T07:05:02;99938.59;;;10.95;43.55
26823;BME280;14852;51.910;8.878;2024-03-08T07:07:29;99924.38;;;11.50;43.05
26823;BME280;14852;51.910;8.878;2024-03-08T07:09:57;99928.47;;;11.87;42.76
26823;BME280;14852;51.910;8.878;2024-03-08T07:12:23;99929.13;;;12.22;42.36
26823;BME280;14852;51.910;8.878;2024-03-08T07:14:49;99930.44;;;12.59;42.49
26823;BME280;14852;51.910;8.878;2024-03-08T07:17:15;99923.78;;;12.69;42.08
26823;BME280;14852;51.910;8.878;2024-03-08T07:19:42;99924.72;;;12.83;41.82
26823;BME280;14852;51.910;8.878;2024-03-08T07:22:08;99919.94;;;12.91;41.76
26823;BME280;14852;51.910;8.878;2024-03-08T07:24:35;99924.81;;;12.67;41.98
26823;BME280;14852;51.910;8.878;2024-03-08T07:27:26;99926.84;;;11.53;43.94
26823;BME280;14852;51.910;8.878;2024-03-08T07:29:52;99930.78;;;10.26;46.06
26823;BME280;14852;51.910;8.878;2024-03-08T07:32:18;99935.63;;;9.21;47.73
26823;BME280;14852;51.910;8.878;2024-03-08T07:34:48;99936.31;;;8.43;49.85
26823;BME280;14852;51.910;8.878;2024-03-08T07:37:16;99925.91;;;9.05;49.44
26823;BME280;14852;51.910;8.878;2024-03-08T07:39:42;99929.97;;;10.60;46.32
26823;BME280;14852;51.910;8.878;2024-03-08T07:42:09;99919.25;;;11.98;43.59
26823;BME280;14852;51.910;8.878;2024-03-08T07:44:37;99914.53;;;13.08;41.72
26823;BME280;14852;51.910;8.878;2024-03-08T07:47:03;99907.03;;;13.87;40.56
26823;BME280;14852;51.910;8.878;2024-03-08T07:49:29;99905.44;;;14.78;39.32
26823;BME280;14852;51.910;8.878;2024-03-08T07:51:56;99901.75;;;15.44;38.52
26823;BME280;14852;51.910;8.878;2024-03-08T07:54:22;99903.22;;;15.97;38.27
26823;BME280;14852;51.910;8.878;2024-03-08T07:56:48;99905.91;;;16.67;37.16
26823;BME280;14852;51.910;8.878;2024-03-08T07:59:13;99906.31;;;16.50;36.83
26823;BME280;14852;51.910;8.878;2024-03-08T08:01:40;99901.53;;;16.20;37.52
26823;BME280;14852;51.910;8.878;2024-03-08T08:04:06;99893.97;;;16.39;37.71
26823;BME280;14852;51.910;8.878;2024-03-08T08:06:32;99901.41;;;16.45;37.09
26823;BME280;14852;51.910;8.878;2024-03-08T08:08:59;99902.25;;;16.22;37.04
26823;BME280;14852;51.910;8.878;2024-03-08T08:11:28;99901.44;;;15.98;36.91
26823;BME280;14852;51.910;8.878;2024-03-08T08:13:54;99896.94;;;15.50;37.02
26823;BME280;14852;51.910;8.878;2024-03-08T08:16:23;99895.78;;;15.42;37.11
26823;BME280;14852;51.910;8.878;2024-03-08T08:18:49;99894.88;;;15.30;37.02
26823;BME280;14852;51.910;8.878;2024-03-08T08:21:15;99888.91;;;15.28;36.80
26823;BME280;14852;51.910;8.878;2024-03-08T08:23:41;99880.22;;;15.15;36.40
26823;BME280;14852;51.910;8.878;2024-03-08T08:26:07;99880.00;;;15.56;36.27
26823;BME280;14852;51.910;8.878;2024-03-08T08:28:33;99876.56;;;15.79;35.86
26823;BME280;14852;51.910;8.878;2024-03-08T08:30:59;99876.72;;;15.89;35.34
26823;BME280;14852;51.910;8.878;2024-03-08T08:33:25;99870.34;;;16.28;35.81
26823;BME280;14852;51.910;8.878;2024-03-08T08:35:51;99866.50;;;16.56;35.46
26823;BME280;14852;51.910;8.878;2024-03-08T08:38:19;99862.81;;;17.05;34.72
26823;BME280;14852;51.910;8.878;2024-03-08T08:40:45;99859.34;;;16.93;34.18
26823;BME280;14852;51.910;8.878;2024-03-08T08:43:13;99867.31;;;16.80;34.98
26823;BME280;14852;51.910;8.878;2024-03-08T08:45:39;99855.75;;;17.05;34.71
26823;BME280;14852;51.910;8.878;2024-03-08T08:48:06;99858.63;;;17.24;34.00
26823;BME280;14852;51.910;8.878;2024-03-08T08:50:32;99849.66;;;17.27;34.34
26823;BME280;14852;51.910;8.878;2024-03-08T08:52:58;99852.03;;;17.75;33.77
26823;BME280;14852;51.910;8.878;2024-03-08T08:55:24;99842.50;;;18.26;33.76
26823;BME280;14852;51.910;8.878;2024-03-08T08:57:53;99841.63;;;18.78;32.71
26823;BME280;14852;51.910;8.878;2024-03-08T09:00:19;99837.28;;;18.68;32.76
26823;BME280;14852;51.910;8.878;2024-03-08T09:02:46;99836.81;;;18.63;32.13
26823;BME280;14852;51.910;8.878;2024-03-08T09:05:12;99825.38;;;18.53;32.50
26823;BME280;14852;51.910;8.878;2024-03-08T09:07:43;99829.09;;;18.29;32.23
26823;BME280;14852;51.910;8.878;2024-03-08T09:10:10;99822.03;;;18.09;32.43
26823;BME280;14852;51.910;8.878;2024-03-08T09:12:41;99823.72;;;17.45;32.27
26823;BME280;14852;51.910;8.878;2024-03-08T09:15:07;99820.56;;;17.30;33.37
26823;BME280;14852;51.910;8.878;2024-03-08T09:17:37;99816.28;;;17.07;32.84
26823;BME280;14852;51.910;8.878;2024-03-08T09:20:06;99808.50;;;16.83;33.25
26823;BME280;14852;51.910;8.878;2024-03-08T09:22:32;99824.81;;;16.75;33.11
26823;BME280;14852;51.910;8.878;2024-03-08T09:24:58;99813.53;;;16.51;33.19
26823;BME280;14852;51.910;8.878;2024-03-08T09:27:24;99810.50;;;15.87;33.73
26823;BME280;14852;51.910;8.878;2024-03-08T09:29:50;99816.69;;;15.62;34.14
26823;BME280;14852;51.910;8.878;2024-03-08T09:32:16;99806.88;;;15.77;34.07
26823;BME280;14852;51.910;8.878;2024-03-08T09:34:42;99799.94;;;16.00;34.22
26823;BME280;14852;51.910;8.878;2024-03-08T09:37:08;99796.28;;;16.48;33.66
26823;BME280;14852;51.910;8.878;2024-03-08T09:39:34;99784.06;;;16.25;33.89
26823;BME280;14852;51.910;8.878;2024-03-08T09:42:01;99783.16;;;16.37;34.50
26823;BME280;14852;51.910;8.878;2024-03-08T09:44:27;99781.09;;;16.29;34.84
26823;BME280;14852;51.910;8.878;2024-03-08T09:46:55;99778.56;;;15.58;34.78
26823;BME280;14852;51.910;8.878;2024-03-08T09:49:21;99777.81;;;14.45;36.52
26823;BME280;14852;51.910;8.878;2024-03-08T09:51:47;99770.06;;;13.91;38.68
26823;BME280;14852;51.910;8.878;2024-03-08T09:54:14;99769.06;;;13.40;39.31
26823;BME280;14852;51.910;8.878;2024-03-08T09:56:43;99765.69;;;12.83;40.38
26823;BME280;14852;51.910;8.878;2024-03-08T09:59:10;99763.19;;;12.53;40.84
26823;BME280;14852;51.910;8.878;2024-03-08T10:02:02;99760.19;;;12.30;41.16
26823;BME280;14852;51.910;8.878;2024-03-08T10:04:29;99755.81;;;12.01;41.76
26823;BME280;14852;51.910;8.878;2024-03-08T10:06:58;99750.16;;;11.94;41.77
26823;BME280;14852;51.910;8.878;2024-03-08T10:09:25;99740.94;;;11.73;41.58
26823;BME280;14852;51.910;8.878;2024-03-08T10:11:56;99744.19;;;11.47;41.82
26823;BME280;14852;51.910;8.878;2024-03-08T10:14:24;99739.22;;;11.42;42.42
26823;BME280;14852;51.910;8.878;2024-03-08T10:16:52;99746.63;;;11.50;42.58
26823;BME280;14852;51.910;8.878;2024-03-08T10:19:19;99741.50;;;11.48;41.75
26823;BME280;14852;51.910;8.878;2024-03-08T10:21:52;99739.81;;;11.47;42.27
26823;BME280;14852;51.910;8.878;2024-03-08T10:24:19;99742.91;;;11.54;42.98
26823;BME280;14852;51.910;8.878;2024-03-08T10:26:45;99731.25;;;11.45;42.45
26823;BME280;14852;51.910;8.878;2024-03-08T10:29:13;99732.53;;;11.38;42.16
26823;BME280;14852;51.910;8.878;2024-03-08T10:31:43;99721.28;;;11.38;42.00
26823;BME280;14852;51.910;8.878;2024-03-08T10:34:12;99718.09;;;11.33;41.96
26823;BME280;14852;51.910;8.878;2024-03-08T10:36:40;99716.16;;;11.36;42.43
26823;BME280;14852;51.910;8.878;2024-03-08T10:39:24;99709.06;;;11.54;42.16
26823;BME280;14852;51.910;8.878;2024-03-08T10:41:57;99702.09;;;11.54;42.18
26823;BME280;14852;51.910;8.878;2024-03-08T10:47:19;99702.09;;;11.54;41.96
26823;BME280;14852;51.910;8.878;2024-03-08T10:50:20;99687.44;;;11.53;41.85
26823;BME280;14852;51.910;8.878;2024-03-08T10:52:51;99696.81;;;11.56;41.79
26823;BME280;14852;51.910;8.878;2024-03-08T10:55:18;99702.91;;;11.41;40.82
26823;BME280;14852;51.910;8.878;2024-03-08T10:57:46;99695.28;;;11.38;41.52
26823;BME280;14852;51.910;8.878;2024-03-08T11:00:15;99690.31;;;11.33;41.67
26823;BME280;14852;51.910;8.878;2024-03-08T11:02:45;99679.81;;;11.35;41.07
26823;BME280;14852;51.910;8.878;2024-03-08T11:05:37;99681.41;;;11.67;41.65
26823;BME280;14852;51.910;8.878;2024-03-08T11:08:18;99689.88;;;11.86;41.93
26823;BME280;14852;51.910;8.878;2024-03-08T11:10:52;99674.94;;;11.74;41.57
26823;BME280;14852;51.910;8.878;2024-03-08T11:13:40;99679.41;;;11.72;40.93
26823;BME280;14852;51.910;8.878;2024-03-08T11:21:37;99661.88;;;11.90;41.46
26823;BME280;14852;51.910;8.878;2024-03-08T11:24:12;99655.09;;;12.02;41.67
26823;BME280;14852;51.910;8.878;2024-03-08T11:26:40;99647.13;;;12.19;41.51
26823;BME280;14852;51.910;8.878;2024-03-08T11:32:17;99639.13;;;12.22;40.97
26823;BME280;14852;51.910;8.878;2024-03-08T11:34:48;99633.81;;;12.23;40.13
26823;BME280;14852;51.910;8.878;2024-03-08T11:37:21;99622.28;;;12.27;40.72
26823;BME280;14852;51.910;8.878;2024-03-08T11:39:52;99628.25;;;12.15;39.73
26823;BME280;14852;51.910;8.878;2024-03-08T11:42:20;99620.41;;;12.01;39.71
26823;BME280;14852;51.910;8.878;2024-03-08T11:44:46;99619.03;;;12.10;40.54
26823;BME280;14852;51.910;8.878;2024-03-08T11:47:14;99616.88;;;12.30;40.34
26823;BME280;14852;51.910;8.878;2024-03-08T11:49:40;99613.69;;;12.54;40.84
26823;BME280;14852;51.910;8.878;2024-03-08T11:52:15;99619.72;;;12.68;40.25
26823;BME280;14852;51.910;8.878;2024-03-08T11:54:42;99613.78;;;12.52;39.57
26823;BME280;14852;51.910;8.878;2024-03-08T11:57:09;99615.28;;;12.42;39.39
26823;BME280;14852;51.910;8.878;2024-03-08T11:59:36;99601.78;;;12.36;39.96
26823;BME280;14852;51.910;8.878;2024-03-08T12:02:04;99595.56;;;12.38;39.43
26823;BME280;14852;51.910;8.878;2024-03-08T12:04:31;99598.44;;;12.48;39.87
26823;BME280;14852;51.910;8.878;2024-03-08T12:07:00;99595.09;;;12.46;38.93
26823;BME280;14852;51.910;8.878;2024-03-08T12:09:35;99589.59;;;12.36;38.92
26823;BME280;14852;51.910;8.878;2024-03-08T12:12:03;99594.63;;;12.25;38.79
26823;BME280;14852;51.910;8.878;2024-03-08T12:14:30;99593.72;;;12.26;38.65
26823;BME280;14852;51.910;8.878;2024-03-08T12:16:57;99581.25;;;12.17;39.02
26823;BME280;14852;51.910;8.878;2024-03-08T12:19:23;99581.53;;;12.12;38.79
26823;BME280;14852;51.910;8.878;2024-03-08T12:21:49;99568.72;;;11.95;38.76
26823;BME280;14852;51.910;8.878;2024-03-08T12:24:16;99562.50;;;11.98;39.13
26823;BME280;14852;51.910;8.878;2024-03-08T12:26:48;99553.09;;;12.09;39.44
26823;BME280;14852;51.910;8.878;2024-03-08T12:29:26;99556.97;;;12.16;39.35
26823;BME280;14852;51.910;8.878;2024-03-08T12:31:55;99549.00;;;12.19;39.27
26823;BME280;14852;51.910;8.878;2024-03-08T12:34:24;99551.28;;;12.24;39.35
26823;BME280;14852;51.910;8.878;2024-03-08T12:36:51;99544.63;;;12.20;39.49
26823;BME280;14852;51.910;8.878;2024-03-08T12:39:19;99526.38;;;12.20;39.58
26823;BME280;14852;51.910;8.878;2024-03-08T12:41:55;99526.19;;;12.23;39.33
26823;BME280;14852;51.910;8.878;2024-03-08T12:44:25;99526.38;;;12.20;39.45
26823;BME280;14852;51.910;8.878;2024-03-08T12:46:51;99515.41;;;12.15;39.51
26823;BME280;14852;51.910;8.878;2024-03-08T12:49:19;99526.22;;;12.09;39.46
26823;BME280;14852;51.910;8.878;2024-03-08T12:51:48;99517.84;;;12.04;39.54
26823;BME280;14852;51.910;8.878;2024-03-08T12:54:14;99516.25;;;12.01;39.68
26823;BME280;14852;51.910;8.878;2024-03-08T12:56:40;99507.44;;;11.89;39.57
26823;BME280;14852;51.910;8.878;2024-03-08T12:59:07;99511.81;;;11.89;39.54
26823;BME280;14852;51.910;8.878;2024-03-08T13:01:34;99502.72;;;11.82;39.47
26823;BME280;14852;51.910;8.878;2024-03-08T13:04:04;99492.31;;;11.82;39.71
26823;BME280;14852;51.910;8.878;2024-03-08T13:06:32;99487.53;;;11.88;40.09
26823;BME280;14852;51.910;8.878;2024-03-08T13:08:58;99470.63;;;11.95;39.97
26823;BME280;14852;51.910;8.878;2024-03-08T13:11:25;99469.94;;;12.06;40.33
26823;BME280;14852;51.910;8.878;2024-03-08T13:13:51;99465.94;;;12.01;40.10
26823;BME280;14852;51.910;8.878;2024-03-08T13:16:18;99458.78;;;12.04;40.33